Time;durP1;ratioP1;P1;durP2;ratioP2;P2;SDS_P1;SDS_P2;PMS_P1;PMS_P2;Temp;Humidity;BMP_temperature;BMP_pressure;BME280_temperature;BME280_humidity;BME280_pressure;Samples;Min_cycle;Max_cycle;Signal;HPM_P1;HPM_P2
2023/01/19 00:00:53;;;;;;;10.50;4.65;;;;;;;;;;5093408;28;20052;-87
2023/01/19 00:03:21;;;;;;;10.57;5.90;;;;;;;;;;5093669;28;20050;-87
2023/01/19 00:05:48;;;;;;;16.95;12.63;;;;;;;;;;5093475;28;20097;-87
2023/01/19 00:08:16;;;;;;;13.23;9.10;;;;;;;;;;5094389;28;20048;-87
2023/01/19 00:10:45;;;;;;;9.80;5.63;;;;;;;;;;5093455;28;20127;-87
2023/01/19 00:13:13;;;;;;;6.65;5.13;;;;;;;;;;5094314;28;20044;-87
2023/01/19 00:15:40;;;;;;;7.72;5.28;;;;;;;;;;5092953;28;20063;-86
2023/01/19 00:18:08;;;;;;;18.13;6.43;;;;;;;;;;5094135;28;20048;-87
2023/01/19 00:20:37;;;;;;;12.80;6.20;;;;;;;;;;5092899;28;20424;-87
2023/01/19 00:23:06;;;;;;;14.35;7.28;;;;;;;;;;5093318;28;20131;-87
2023/01/19 00:25:33;;;;;;;12.13;6.55;;;;;;;;;;5093048;28;20040;-87
2023/01/19 00:28:01;;;;;;;10.65;5.07;;;;;;;;;;5093069;28;20409;-87
2023/01/19 00:30:28;;;;;;;10.10;5.43;;;;;;;;;;5092527;28;20506;-87
2023/01/19 00:32:55;;;;;;;7.50;4.88;;;;;;;;;;5093340;28;20417;-86
2023/01/19 00:35:22;;;;;;;14.50;4.80;;;;;;;;;;5093836;28;20044;-87
2023/01/19 00:37:50;;;;;;;10.93;5.57;;;;;;;;;;5094229;28;20098;-87
2023/01/19 00:40:17;;;;;;;7.78;4.47;;;;;;;;;;5094081;28;20131;-87
2023/01/19 00:42:47;;;;;;;7.72;4.60;;;;;;;;;;5094019;28;20047;-86
2023/01/19 00:45:17;;;;;;;9.10;4.22;;;;;;;;;;5093116;28;20385;-87
2023/01/19 00:47:45;;;;;;;10.23;4.43;;;;;;;;;;5092849;28;20044;-87
2023/01/19 00:50:13;;;;;;;6.22;4.07;;;;;;;;;;5092827;28;20488;-87
2023/01/19 00:52:44;;;;;;;6.32;4.57;;;;;;;;;;5093014;28;20124;-87
2023/01/19 00:55:12;;;;;;;5.75;3.97;;;;;;;;;;5093181;28;20048;-87
2023/01/19 00:57:40;;;;;;;9.38;6.13;;;;;;;;;;5092937;28;20131;-87
2023/01/19 01:00:10;;;;;;;7.30;4.35;;;;;;;;;;5092693;28;20048;-87
2023/01/19 01:02:38;;;;;;;6.72;4.28;;;;;;;;;;5092763;28;20044;-87
2023/01/19 01:05:06;;;;;;;5.60;3.80;;;;;;;;;;5092815;28;20047;-87
2023/01/19 01:07:43;;;;;;;9.95;5.70;;;;;;;;;;5092895;28;20052;-87
2023/01/19 01:10:12;;;;;;;9.52;4.82;;;;;;;;;;5094043;28;20522;-87
2023/01/19 01:12:40;;;;;;;5.70;4.35;;;;;;;;;;5094551;28;20048;-87
2023/01/19 01:15:21;;;;;;;6.05;3.50;;;;;;;;;;5097911;28;20047;-87
2023/01/19 01:17:51;;;;;;;7.95;4.60;;;;;;;;;;5093818;28;20048;-87
2023/01/19 01:20:21;;;;;;;9.73;4.50;;;;;;;;;;5092525;28;20101;-87
2023/01/19 01:22:49;;;;;;;9.48;4.43;;;;;;;;;;5092358;28;20416;-87
2023/01/19 01:25:18;;;;;;;7.78;4.53;;;;;;;;;;5093368;28;20051;-86
2023/01/19 01:27:45;;;;;;;9.85;4.25;;;;;;;;;;5092527;28;20047;-87
2023/01/19 01:30:13;;;;;;;4.85;3.60;;;;;;;;;;5093293;28;20048;-87
2023/01/19 01:32:41;;;;;;;5.05;3.10;;;;;;;;;;5092403;28;20044;-87
2023/01/19 01:35:08;;;;;;;7.20;3.83;;;;;;;;;;5092407;28;20056;-88
2023/01/19 01:37:36;;;;;;;6.13;3.80;;;;;;;;;;5092261;28;20539;-87
2023/01/19 01:40:05;;;;;;;9.73;4.18;;;;;;;;;;5092504;28;20417;-88
2023/01/19 01:42:33;;;;;;;9.32;5.00;;;;;;;;;;5093964;28;20055;-87
2023/01/19 01:45:02;;;;;;;7.95;3.78;;;;;;;;;;5096236;28;20075;-87
2023/01/19 01:47:36;;;;;;;6.68;3.90;;;;;;;;;;5096414;28;20059;-87
2023/01/19 01:50:12;;;;;;;7.70;4.25;;;;;;;;;;5096457;28;20130;-87
2023/01/19 01:52:51;;;;;;;5.50;3.50;;;;;;;;;;5096183;28;20515;-88
2023/01/19 01:55:36;;;;;;;8.13;3.67;;;;;;;;;;5097134;28;20500;-87
2023/01/19 01:58:04;;;;;;;5.65;3.72;;;;;;;;;;5096418;28;20043;-87
2023/01/19 02:02:49;;;;;;;8.38;3.45;;;;;;;;;;5097367;28;20548;-87
2023/01/19 02:03:19;;;;;;;7.60;4.10;;;;;;;;;;5097168;28;20044;-88
2023/01/19 02:05:46;;;;;;;7.50;3.85;;;;;;;;;;5096798;28;20095;-87
2023/01/19 02:14:07;;;;;;;5.80;3.67;;;;;;;;;;5096645;28;20407;-87
2023/01/19 02:16:35;;;;;;;7.50;3.85;;;;;;;;;;5095570;28;20052;-87
2023/01/19 02:19:04;;;;;;;10.80;4.07;;;;;;;;;;5096839;28;20087;-87
2023/01/19 02:21:35;;;;;;;6.22;3.88;;;;;;;;;;5096508;28;20074;-87
2023/01/19 02:24:03;;;;;;;10.50;4.45;;;;;;;;;;5095813;28;20050;-87
2023/01/19 02:26:34;;;;;;;5.40;3.80;;;;;;;;;;5096965;28;20070;-88
2023/01/19 02:29:03;;;;;;;7.03;4.27;;;;;;;;;;5095858;28;20055;-87
2023/01/19 02:31:32;;;;;;;6.03;3.70;;;;;;;;;;5095712;28;20048;-87
2023/01/19 02:34:00;;;;;;;7.53;3.50;;;;;;;;;;5096706;28;20086;-87
2023/01/19 02:36:47;;;;;;;5.68;3.40;;;;;;;;;;5094837;28;20055;-87
2023/01/19 02:39:15;;;;;;;12.10;4.07;;;;;;;;;;5095282;28;20126;-88
2023/01/19 02:41:46;;;;;;;6.75;3.90;;;;;;;;;;5095287;28;20078;-88
2023/01/19 02:44:14;;;;;;;4.30;3.72;;;;;;;;;;5096254;28;20134;-87
2023/01/19 02:46:41;;;;;;;7.70;4.22;;;;;;;;;;5095199;28;20139;-87
2023/01/19 02:49:08;;;;;;;7.05;4.07;;;;;;;;;;5095151;28;20047;-87
2023/01/19 02:51:35;;;;;;;7.18;4.47;;;;;;;;;;5095293;28;20050;-87
2023/01/19 02:54:05;;;;;;;6.40;4.07;;;;;;;;;;5095476;28;20048;-87
2023/01/19 02:56:52;;;;;;;11.80;4.50;;;;;;;;;;5096128;28;20055;-87
2023/01/19 02:59:36;;;;;;;10.88;5.82;;;;;;;;;;5096193;28;20086;-87
2023/01/19 03:02:22;;;;;;;13.30;5.78;;;;;;;;;;5094464;28;20056;-87
2023/01/19 03:05:03;;;;;;;13.75;6.57;;;;;;;;;;5094834;28;20044;-87
2023/01/19 03:07:37;;;;;;;16.00;6.78;;;;;;;;;;5094900;28;20055;-87
2023/01/19 03:10:07;;;;;;;18.90;7.88;;;;;;;;;;5095613;28;20044;-87
2023/01/19 03:12:40;;;;;;;20.98;10.20;;;;;;;;;;5095926;28;20130;-87
2023/01/19 03:15:17;;;;;;;19.33;9.98;;;;;;;;;;5094406;28;20052;-87
2023/01/19 03:17:47;;;;;;;10.75;6.03;;;;;;;;;;5095509;28;20416;-87
2023/01/19 03:20:17;;;;;;;9.30;5.05;;;;;;;;;;5094467;28;20044;-87
2023/01/19 03:22:45;;;;;;;15.18;6.50;;;;;;;;;;5095325;28;20044;-87
2023/01/19 03:25:14;;;;;;;15.80;6.90;;;;;;;;;;5095684;28;20050;-87
2023/01/19 03:27:42;;;;;;;9.60;5.28;;;;;;;;;;5094334;28;20052;-87
2023/01/19 03:30:17;;;;;;;14.68;5.95;;;;;;;;;;5095272;28;20044;-87
2023/01/19 03:32:47;;;;;;;9.30;5.07;;;;;;;;;;5094256;28;20048;-87
2023/01/19 03:35:17;;;;;;;13.45;5.38;;;;;;;;;;5094228;28;20127;-87
2023/01/19 03:37:46;;;;;;;10.45;5.10;;;;;;;;;;5095132;28;20389;-87
2023/01/19 03:40:14;;;;;;;8.82;5.00;;;;;;;;;;5094258;28;20040;-87
2023/01/19 03:42:42;;;;;;;8.00;4.78;;;;;;;;;;5095294;28;20139;-87
2023/01/19 03:45:10;;;;;;;11.38;4.95;;;;;;;;;;5093977;28;20044;-87
2023/01/19 03:47:38;;;;;;;9.70;4.25;;;;;;;;;;5093709;28;20146;-87
2023/01/19 03:50:08;;;;;;;7.25;5.05;;;;;;;;;;5093854;28;20134;-87
2023/01/19 03:52:35;;;;;;;12.93;5.93;;;;;;;;;;5095200;28;20048;-88
2023/01/19 03:55:04;;;;;;;11.20;6.32;;;;;;;;;;5093834;28;20054;-87
2023/01/19 03:57:31;;;;;;;10.50;4.97;;;;;;;;;;5093937;28;20413;-87
2023/01/19 03:59:59;;;;;;;9.88;4.65;;;;;;;;;;5094879;28;20431;-87
2023/01/19 04:02:26;;;;;;;13.15;5.05;;;;;;;;;;5093731;28;20044;-87
2023/01/19 04:04:53;;;;;;;8.73;5.20;;;;;;;;;;5094410;28;20040;-87
2023/01/19 04:07:20;;;;;;;10.48;5.00;;;;;;;;;;5094284;28;20052;-88
2023/01/19 04:09:47;;;;;;;10.13;5.50;;;;;;;;;;5093646;28;20067;-87
2023/01/19 04:12:14;;;;;;;9.27;4.97;;;;;;;;;;5094546;28;20044;-87
2023/01/19 04:14:42;;;;;;;11.32;4.95;;;;;;;;;;5094387;28;20120;-87
2023/01/19 04:17:09;;;;;;;9.02;4.95;;;;;;;;;;5093307;28;20048;-87
2023/01/19 04:19:36;;;;;;;8.07;5.10;;;;;;;;;;5094618;28;20048;-87
2023/01/19 04:22:03;;;;;;;7.35;4.80;;;;;;;;;;5093112;28;20051;-87
2023/01/19 04:24:30;;;;;;;7.55;4.90;;;;;;;;;;5094426;28;20403;-87
2023/01/19 04:26:58;;;;;;;11.50;5.53;;;;;;;;;;5093257;28;20130;-87
2023/01/19 04:29:25;;;;;;;9.52;5.18;;;;;;;;;;5093234;28;20044;-87
2023/01/19 04:31:52;;;;;;;11.63;5.10;;;;;;;;;;5094019;28;20062;-87
2023/01/19 04:34:19;;;;;;;17.45;5.57;;;;;;;;;;5093618;28;20052;-87
2023/01/19 04:36:49;;;;;;;13.07;5.75;;;;;;;;;;5094092;28;20050;-87
2023/01/19 04:39:17;;;;;;;57.17;20.50;;;;;;;;;;5094216;28;20056;-88
2023/01/19 04:41:44;;;;;;;16.33;6.78;;;;;;;;;;5093772;28;20044;-87
2023/01/19 04:44:11;;;;;;;12.77;6.38;;;;;;;;;;5093946;28;20044;-86
2023/01/19 04:46:38;;;;;;;9.43;5.22;;;;;;;;;;5092413;28;20050;-87
2023/01/19 04:49:06;;;;;;;10.93;4.80;;;;;;;;;;5093409;28;20052;-87
2023/01/19 04:51:33;;;;;;;12.60;4.97;;;;;;;;;;5092765;28;20047;-87
2023/01/19 04:54:01;;;;;;;10.38;5.38;;;;;;;;;;5093779;28;20052;-87
2023/01/19 04:56:28;;;;;;;13.05;5.38;;;;;;;;;;5092427;28;20471;-87
2023/01/19 04:58:55;;;;;;;12.70;5.47;;;;;;;;;;5092487;28;20106;-87
2023/01/19 05:01:23;;;;;;;14.80;6.10;;;;;;;;;;5092724;28;20052;-87
2023/01/19 05:03:50;;;;;;;15.10;8.68;;;;;;;;;;5092621;28;20051;-87
2023/01/19 05:06:18;;;;;;;16.35;5.55;;;;;;;;;;5093644;28;20062;-87
2023/01/19 05:08:45;;;;;;;20.80;8.65;;;;;;;;;;5092818;28;20420;-87
2023/01/19 05:11:12;;;;;;;13.15;7.43;;;;;;;;;;5093424;28;20040;-87
2023/01/19 05:13:39;;;;;;;9.25;5.82;;;;;;;;;;5092580;28;20056;-87
2023/01/19 05:16:07;;;;;;;17.20;6.80;;;;;;;;;;5093499;28;20051;-87
2023/01/19 05:18:34;;;;;;;13.88;7.68;;;;;;;;;;5091915;28;20044;-87
2023/01/19 05:21:05;;;;;;;13.48;7.38;;;;;;;;;;5092491;28;20142;-87
2023/01/19 05:23:35;;;;;;;43.22;15.32;;;;;;;;;;5093335;28;20055;-87
2023/01/19 05:26:03;;;;;;;21.25;10.40;;;;;;;;;;5092290;28;20048;-86
2023/01/19 05:28:31;;;;;;;42.03;14.65;;;;;;;;;;5093384;28;20088;-87
2023/01/19 05:30:58;;;;;;;45.38;16.77;;;;;;;;;;5092522;28;20055;-87
2023/01/19 05:33:26;;;;;;;31.52;13.50;;;;;;;;;;5092140;28;20484;-87
2023/01/19 05:35:54;;;;;;;32.30;11.15;;;;;;;;;;5091782;28;20500;-87
2023/01/19 05:38:21;;;;;;;23.30;10.07;;;;;;;;;;5093310;28;20206;-87
2023/01/19 05:41:01;;;;;;;19.75;10.05;;;;;;;;;;5092578;28;20058;-87
2023/01/19 05:43:28;;;;;;;19.52;8.52;;;;;;;;;;5093053;28;20131;-87
2023/01/19 05:45:55;;;;;;;13.60;7.30;;;;;;;;;;5092161;28;20059;-88
2023/01/19 05:48:25;;;;;;;19.52;9.13;;;;;;;;;;5092242;28;20131;-87
2023/01/19 05:50:56;;;;;;;29.83;12.73;;;;;;;;;;5092944;28;20041;-87
2023/01/19 05:53:23;;;;;;;40.90;14.57;;;;;;;;;;5093101;28;20059;-87
2023/01/19 05:55:50;;;;;;;31.42;13.05;;;;;;;;;;5092985;28;20054;-88
2023/01/19 05:58:17;;;;;;;32.83;13.18;;;;;;;;;;5092265;28;20054;-87
2023/01/19 06:00:45;;;;;;;38.25;14.55;;;;;;;;;;5092167;28;20082;-88
2023/01/19 06:03:12;;;;;;;41.72;13.93;;;;;;;;;;5092229;28;20056;-88
2023/01/19 06:05:39;;;;;;;42.10;15.65;;;;;;;;;;5092195;28;20056;-88
2023/01/19 06:08:07;;;;;;;53.67;20.67;;;;;;;;;;5092255;28;20059;-88
2023/01/19 06:10:34;;;;;;;65.30;25.17;;;;;;;;;;5093387;28;20052;-87
2023/01/19 06:13:01;;;;;;;96.93;33.42;;;;;;;;;;5092944;28;20461;-87
2023/01/19 06:15:29;;;;;;;65.53;25.23;;;;;;;;;;5092805;28;20052;-88
2023/01/19 06:17:56;;;;;;;71.97;26.60;;;;;;;;;;5092079;28;20048;-87
2023/01/19 06:20:23;;;;;;;79.47;28.17;;;;;;;;;;5091954;28;20044;-88
2023/01/19 06:22:50;;;;;;;80.47;28.10;;;;;;;;;;5090965;28;20044;-87
2023/01/19 06:25:18;;;;;;;86.38;30.10;;;;;;;;;;5091858;28;20476;-88
2023/01/19 06:27:45;;;;;;;86.80;29.90;;;;;;;;;;5091685;28;20052;-88
2023/01/19 06:30:13;;;;;;;83.20;28.83;;;;;;;;;;5094721;28;20048;-88
2023/01/19 06:32:40;;;;;;;82.53;29.80;;;;;;;;;;5095511;28;20087;-88
2023/01/19 06:35:08;;;;;;;74.03;27.50;;;;;;;;;;5096587;28;20050;-88
2023/01/19 06:37:36;;;;;;;67.35;25.17;;;;;;;;;;5096274;28;20488;-88
2023/01/19 06:40:04;;;;;;;64.13;26.30;;;;;;;;;;5095318;28;20040;-87
2023/01/19 06:42:31;;;;;;;40.08;18.75;;;;;;;;;;5095370;28;20048;-88
2023/01/19 06:44:58;;;;;;;47.20;19.83;;;;;;;;;;5095288;28;20052;-88
2023/01/19 06:47:25;;;;;;;45.90;16.88;;;;;;;;;;5095186;28;20110;-88
2023/01/19 06:49:53;;;;;;;42.47;17.20;;;;;;;;;;5096213;28;20572;-88
2023/01/19 06:52:20;;;;;;;35.88;16.83;;;;;;;;;;5095025;28;20040;-88
2023/01/19 06:54:47;;;;;;;36.63;14.95;;;;;;;;;;5095212;28;20527;-89
2023/01/19 06:57:16;;;;;;;54.15;19.17;;;;;;;;;;5095145;28;20446;-89
2023/01/19 06:59:43;;;;;;;53.50;20.50;;;;;;;;;;5095033;28;20097;-89
2023/01/19 07:02:10;;;;;;;35.58;13.57;;;;;;;;;;5094864;28;20396;-89
2023/01/19 07:04:54;;;;;;;33.20;13.45;;;;;;;;;;5095059;28;20044;-88
2023/01/19 07:07:21;;;;;;;35.88;15.98;;;;;;;;;;5094770;28;20059;-88
2023/01/19 07:09:49;;;;;;;21.17;10.75;;;;;;;;;;5094780;28;20053;-88
2023/01/19 07:12:19;;;;;;;45.78;22.70;;;;;;;;;;5095217;28;20492;-89
2023/01/19 07:14:48;;;;;;;52.78;16.42;;;;;;;;;;5095744;28;20095;-88
2023/01/19 07:17:15;;;;;;;32.75;16.88;;;;;;;;;;5094449;28;20087;-89
2023/01/19 07:19:42;;;;;;;47.17;19.02;;;;;;;;;;5095772;28;20548;-89
2023/01/19 07:22:09;;;;;;;47.83;20.83;;;;;;;;;;5094047;28;20079;-88
2023/01/19 07:24:37;;;;;;;53.22;24.00;;;;;;;;;;5093476;28;20450;-88
2023/01/19 07:27:04;;;;;;;55.88;23.58;;;;;;;;;;5094482;28;20040;-89
2023/01/19 07:29:31;;;;;;;45.05;21.77;;;;;;;;;;5094569;28;20138;-88
2023/01/19 07:31:59;;;;;;;41.88;20.80;;;;;;;;;;5094542;28;20051;-89
2023/01/19 07:34:26;;;;;;;37.47;19.60;;;;;;;;;;5095330;28;20052;-89
2023/01/19 07:36:55;;;;;;;33.03;17.70;;;;;;;;;;5094898;28;20048;-89
2023/01/19 07:39:22;;;;;;;30.38;16.55;;;;;;;;;;5094021;28;20086;-88
2023/01/19 07:41:49;;;;;;;27.80;15.85;;;;;;;;;;5094935;28;20098;-89
2023/01/19 07:44:16;;;;;;;27.20;14.80;;;;;;;;;;5093623;28;20059;-88
2023/01/19 07:46:44;;;;;;;28.00;14.60;;;;;;;;;;5095118;28;20127;-89
2023/01/19 07:49:11;;;;;;;27.27;14.73;;;;;;;;;;5095004;28;20048;-88
2023/01/19 07:51:39;;;;;;;21.85;13.82;;;;;;;;;;5093998;28;20140;-88
2023/01/19 07:54:07;;;;;;;22.95;12.52;;;;;;;;;;5094379;28;20412;-89
2023/01/19 07:56:34;;;;;;;22.05;12.63;;;;;;;;;;5093889;28;20139;-89
2023/01/19 07:59:02;;;;;;;20.92;12.40;;;;;;;;;;5094641;28;20051;-90
2023/01/19 08:01:30;;;;;;;21.73;12.57;;;;;;;;;;5094194;28;20555;-90
2023/01/19 08:03:57;;;;;;;23.10;12.60;;;;;;;;;;5093482;28;20048;-89
2023/01/19 08:06:31;;;;;;;22.98;12.30;;;;;;;;;;5094834;28;20060;-89
2023/01/19 08:08:58;;;;;;;20.02;12.48;;;;;;;;;;5095285;28;20047;-89
2023/01/19 08:11:26;;;;;;;20.67;12.27;;;;;;;;;;5093907;28;20059;-89
2023/01/19 08:13:53;;;;;;;25.35;13.52;;;;;;;;;;5094567;28;20408;-88
2023/01/19 08:16:20;;;;;;;21.33;12.27;;;;;;;;;;5093148;28;20083;-89
2023/01/19 08:18:47;;;;;;;18.90;13.52;;;;;;;;;;5093838;28;20522;-89
2023/01/19 08:21:15;;;;;;;29.23;14.95;;;;;;;;;;5093887;28;20143;-90
2023/01/19 08:23:42;;;;;;;21.17;12.43;;;;;;;;;;5093806;28;20052;-88
2023/01/19 08:26:22;;;;;;;27.48;14.38;;;;;;;;;;5093506;28;20052;-88
2023/01/19 08:28:49;;;;;;;16.40;11.40;;;;;;;;;;5094259;28;20102;-88
2023/01/19 08:31:17;;;;;;;21.63;12.05;;;;;;;;;;5093138;28;20044;-89
2023/01/19 08:33:50;;;;;;;16.38;11.15;;;;;;;;;;5093427;28;20052;-88
2023/01/19 08:36:17;;;;;;;18.40;10.55;;;;;;;;;;5092880;28;20047;-89
2023/01/19 08:38:45;;;;;;;17.95;11.50;;;;;;;;;;5093021;28;20052;-88
2023/01/19 08:41:12;;;;;;;17.70;10.50;;;;;;;;;;5094282;28;20054;-87
2023/01/19 08:43:39;;;;;;;14.10;8.95;;;;;;;;;;5092892;28;20079;-88
2023/01/19 08:46:07;;;;;;;13.98;9.88;;;;;;;;;;5093954;28;20048;-89
2023/01/19 08:48:35;;;;;;;17.38;10.35;;;;;;;;;;5093047;28;20039;-88
2023/01/19 08:51:04;;;;;;;15.85;10.48;;;;;;;;;;5092872;28;20052;-89
2023/01/19 08:53:31;;;;;;;16.60;10.48;;;;;;;;;;5093012;28;20396;-87
2023/01/19 08:56:00;;;;;;;14.10;9.30;;;;;;;;;;5093826;28;20457;-87
2023/01/19 08:58:27;;;;;;;12.52;8.70;;;;;;;;;;5093121;28;20098;-89
2023/01/19 09:00:54;;;;;;;12.02;7.45;;;;;;;;;;5092713;28;20416;-89
2023/01/19 09:03:22;;;;;;;12.43;9.10;;;;;;;;;;5092624;28;20048;-87
2023/01/19 09:05:49;;;;;;;14.50;8.88;;;;;;;;;;5092718;28;20051;-88
2023/01/19 09:08:17;;;;;;;14.07;8.43;;;;;;;;;;5092962;28;20051;-88
2023/01/19 09:10:46;;;;;;;13.38;9.20;;;;;;;;;;5092835;28;20047;-89
2023/01/19 09:13:13;;;;;;;11.52;8.35;;;;;;;;;;5092860;28;20127;-88
2023/01/19 09:15:42;;;;;;;12.80;8.57;;;;;;;;;;5093120;28;20051;-88
2023/01/19 09:18:12;;;;;;;10.25;7.68;;;;;;;;;;5092672;28;20408;-88
2023/01/19 09:20:42;;;;;;;11.02;8.05;;;;;;;;;;5092871;28;20284;-87
2023/01/19 09:23:10;;;;;;;9.60;7.30;;;;;;;;;;5092573;28;20044;-87
2023/01/19 09:25:38;;;;;;;11.65;7.68;;;;;;;;;;5092461;28;20070;-89
2023/01/19 09:28:08;;;;;;;14.52;7.63;;;;;;;;;;5092778;28;20047;-88
2023/01/19 09:30:36;;;;;;;11.50;7.82;;;;;;;;;;5093336;28;20043;-87
2023/01/19 09:33:09;;;;;;;10.18;7.93;;;;;;;;;;5093325;28;20488;-87
2023/01/19 09:35:38;;;;;;;11.55;7.15;;;;;;;;;;5092440;28;20384;-86
2023/01/19 09:38:06;;;;;;;12.00;8.10;;;;;;;;;;5092357;28;20060;-89
2023/01/19 09:40:35;;;;;;;12.73;8.60;;;;;;;;;;5093265;28;20084;-88
2023/01/19 09:43:11;;;;;;;11.68;7.28;;;;;;;;;;5093357;28;20048;-87
2023/01/19 09:45:45;;;;;;;15.32;8.95;;;;;;;;;;5092153;28;20048;-88
2023/01/19 09:48:21;;;;;;;16.83;7.95;;;;;;;;;;5092215;28;20052;-86
2023/01/19 09:50:49;;;;;;;12.85;7.95;;;;;;;;;;5093138;28;20046;-86
2023/01/19 09:53:20;;;;;;;14.65;9.07;;;;;;;;;;5093445;28;20050;-86
2023/01/19 09:55:48;;;;;;;10.60;8.13;;;;;;;;;;5092053;28;20492;-86
2023/01/19 09:58:18;;;;;;;11.70;8.40;;;;;;;;;;5092001;28;20089;-86
2023/01/19 10:00:47;;;;;;;12.27;7.85;;;;;;;;;;5092988;28;20044;-87
2023/01/19 10:03:15;;;;;;;13.60;8.93;;;;;;;;;;5091686;28;20083;-87
2023/01/19 10:05:45;;;;;;;14.02;8.00;;;;;;;;;;5095864;28;20411;-87
2023/01/19 10:08:23;;;;;;;14.80;8.15;;;;;;;;;;5095806;28;20050;-87
2023/01/19 10:10:54;;;;;;;9.65;7.95;;;;;;;;;;5097238;28;20134;-87
2023/01/19 10:13:29;;;;;;;10.68;8.00;;;;;;;;;;5096760;28;20500;-88
2023/01/19 10:16:15;;;;;;;9.82;7.18;;;;;;;;;;5096723;28;20051;-87
2023/01/19 10:18:47;;;;;;;12.98;6.88;;;;;;;;;;5095615;28;20530;-85
2023/01/19 10:21:17;;;;;;;15.30;7.72;;;;;;;;;;5095658;28;20076;-87
2023/01/19 10:23:52;;;;;;;10.65;7.60;;;;;;;;;;5096416;28;20839;-86
2023/01/19 10:26:51;;;;;;;10.18;7.03;;;;;;;;;;5095160;28;20055;-85
2023/01/19 10:29:21;;;;;;;10.93;7.72;;;;;;;;;;5079666;28;20056;-85
2023/01/19 10:31:51;;;;;;;10.25;6.97;;;;;;;;;;5094986;28;20404;-86
2023/01/19 10:34:18;;;;;;;8.27;6.68;;;;;;;;;;5095273;28;20553;-86
2023/01/19 10:36:50;;;;;;;9.60;6.80;;;;;;;;;;5095167;28;20484;-86
2023/01/19 10:39:18;;;;;;;8.45;6.80;;;;;;;;;;5096428;28;20508;-87
2023/01/19 10:41:52;;;;;;;10.82;7.40;;;;;;;;;;5095198;28;20454;-85
2023/01/19 10:44:29;;;;;;;9.40;6.78;;;;;;;;;;5094956;28;20048;-86
2023/01/19 10:46:58;;;;;;;9.60;6.57;;;;;;;;;;5094988;28;20135;-86
2023/01/19 10:49:46;;;;;;;11.95;6.90;;;;;;;;;;5093534;28;20540;-86
2023/01/19 10:52:28;;;;;;;8.13;6.55;;;;;;;;;;5093978;28;20137;-86
2023/01/19 10:54:55;;;;;;;7.50;6.30;;;;;;;;;;5094971;28;20054;-87
2023/01/19 10:57:25;;;;;;;5.68;5.13;;;;;;;;;;5094767;28;20518;-86
2023/01/19 10:59:53;;;;;;;7.88;5.97;;;;;;;;;;5094888;28;20044;-87
2023/01/19 11:02:28;;;;;;;5.80;5.22;;;;;;;;;;5095545;28;20105;-85
2023/01/19 11:05:00;;;;;;;6.75;5.80;;;;;;;;;;5093989;28;20052;-85
2023/01/19 11:07:32;;;;;;;6.50;5.43;;;;;;;;;;5094387;28;20054;-87
2023/01/19 11:10:19;;;;;;;6.88;5.10;;;;;;;;;;5095016;28;20055;-87
2023/01/19 11:13:14;;;;;;;4.82;4.32;;;;;;;;;;5094892;28;20401;-86
2023/01/19 11:15:44;;;;;;;7.38;5.60;;;;;;;;;;5090964;28;20496;-86
2023/01/19 11:18:22;;;;;;;10.55;5.15;;;;;;;;;;5094427;28;20530;-86
2023/01/19 11:20:51;;;;;;;6.07;4.15;;;;;;;;;;5095549;28;20048;-86
2023/01/19 11:23:32;;;;;;;33.13;5.78;;;;;;;;;;5095479;28;20086;-86
2023/01/19 11:26:01;;;;;;;4.63;4.22;;;;;;;;;;5094553;28;20047;-85
2023/01/19 11:28:28;;;;;;;10.55;5.53;;;;;;;;;;5094388;28;20399;-86
2023/01/19 11:30:55;;;;;;;8.63;5.20;;;;;;;;;;5094244;28;20536;-85
2023/01/19 11:33:43;;;;;;;6.72;5.32;;;;;;;;;;5094299;28;20550;-86
2023/01/19 11:36:15;;;;;;;5.45;4.63;;;;;;;;;;5077593;28;20126;-85
2023/01/19 11:38:43;;;;;;;7.40;5.25;;;;;;;;;;5094993;28;20068;-86
2023/01/19 11:41:21;;;;;;;6.45;5.35;;;;;;;;;;5094334;28;20046;-87
2023/01/19 11:43:50;;;;;;;10.95;5.88;;;;;;;;;;5093960;28;20479;-86
2023/01/19 11:46:18;;;;;;;7.88;5.95;;;;;;;;;;5093570;28;20044;-85
2023/01/19 11:48:56;;;;;;;6.72;5.47;;;;;;;;;;5093988;28;20123;-87
2023/01/19 11:51:24;;;;;;;7.38;5.53;;;;;;;;;;5093651;28;20047;-87
2023/01/19 11:53:52;;;;;;;5.60;5.05;;;;;;;;;;5094704;28;20052;-86
2023/01/19 11:56:23;;;;;;;7.90;5.55;;;;;;;;;;5093839;28;20502;-84
2023/01/19 11:58:50;;;;;;;10.13;5.85;;;;;;;;;;5093657;28;20052;-86
2023/01/19 12:01:19;;;;;;;6.40;5.65;;;;;;;;;;5094747;28;20052;-86
2023/01/19 12:03:58;;;;;;;6.53;5.35;;;;;;;;;;5093379;28;20047;-87
2023/01/19 12:06:30;;;;;;;9.13;5.50;;;;;;;;;;5094428;28;20117;-86
2023/01/19 12:09:01;;;;;;;6.57;5.68;;;;;;;;;;5094659;28;20040;-87
2023/01/19 12:11:37;;;;;;;7.20;5.35;;;;;;;;;;5093623;28;20102;-86
2023/01/19 12:14:06;;;;;;;9.20;5.43;;;;;;;;;;5094513;28;20052;-84
2023/01/19 12:16:34;;;;;;;8.52;5.60;;;;;;;;;;5093455;28;20067;-84
2023/01/19 12:19:04;;;;;;;7.47;5.72;;;;;;;;;;5093752;28;20056;-88
2023/01/19 12:21:31;;;;;;;8.73;5.07;;;;;;;;;;5093294;28;20380;-86
2023/01/19 12:24:15;;;;;;;8.93;5.40;;;;;;;;;;5094235;28;20048;-87
2023/01/19 12:26:54;;;;;;;7.43;5.10;;;;;;;;;;5092818;28;20048;-88
2023/01/19 12:29:23;;;;;;;6.68;5.30;;;;;;;;;;5093442;28;20055;-86
2023/01/19 12:32:09;;;;;;;6.38;5.47;;;;;;;;;;5093240;28;20109;-87
2023/01/19 12:34:43;;;;;;;8.55;5.68;;;;;;;;;;5094098;28;20052;-84
2023/01/19 12:37:30;;;;;;;7.28;6.35;;;;;;;;;;5092864;28;20044;-84
2023/01/19 12:40:00;;;;;;;8.30;6.22;;;;;;;;;;5092848;28;20056;-86
2023/01/19 12:42:28;;;;;;;8.60;6.55;;;;;;;;;;5094132;28;20047;-86
2023/01/19 12:45:04;;;;;;;9.85;7.05;;;;;;;;;;5093706;28;20131;-86
2023/01/19 12:47:31;;;;;;;9.93;7.10;;;;;;;;;;5092879;28;20051;-86
2023/01/19 12:50:05;;;;;;;8.85;7.22;;;;;;;;;;5092875;28;20047;-87
2023/01/19 12:52:39;;;;;;;10.05;7.22;;;;;;;;;;5092963;28;20051;-87
2023/01/19 12:55:13;;;;;;;10.00;7.40;;;;;;;;;;5093861;28;20121;-86
2023/01/19 12:57:40;;;;;;;;;;;;;;;;;;5093829;28;20560;-87
2023/01/19 13:00:27;;;;;;;12.07;7.07;;;;;;;;;;5093521;28;19926;-86
2023/01/19 13:02:57;;;;;;;9.40;6.35;;;;;;;;;;5092611;28;20047;-85
2023/01/19 13:05:29;;;;;;;11.15;7.82;;;;;;;;;;5092571;28;20051;-85
2023/01/19 13:08:03;;;;;;;9.67;6.90;;;;;;;;;;5093292;28;20059;-86
2023/01/19 13:10:49;;;;;;;10.07;8.02;;;;;;;;;;5092250;28;20143;-85
2023/01/19 13:13:19;;;;;;;13.02;6.88;;;;;;;;;;5092512;28;20055;-85
2023/01/19 13:15:47;;;;;;;11.32;7.68;;;;;;;;;;5091771;28;20056;-86
2023/01/19 13:18:24;;;;;;;12.07;8.13;;;;;;;;;;5093174;28;20044;-85
2023/01/19 13:21:10;;;;;;;12.30;7.38;;;;;;;;;;5092063;28;20135;-85
2023/01/19 13:23:49;;;;;;;10.60;7.40;;;;;;;;;;5093181;28;20046;-83
2023/01/19 13:26:18;;;;;;;11.00;7.85;;;;;;;;;;5093290;28;20409;-85
2023/01/19 13:28:50;;;;;;;9.20;7.57;;;;;;;;;;5092223;28;20048;-86
2023/01/19 13:31:17;;;;;;;14.23;8.50;;;;;;;;;;5093210;28;20052;-83
2023/01/19 13:33:45;;;;;;;12.95;7.45;;;;;;;;;;5092212;28;20044;-86
2023/01/19 13:36:16;;;;;;;9.40;6.93;;;;;;;;;;5093308;28;20079;-85
2023/01/19 13:38:43;;;;;;;7.95;6.90;;;;;;;;;;5095373;28;20055;-84
2023/01/19 13:41:14;;;;;;;11.82;7.65;;;;;;;;;;5096333;28;20044;-85
2023/01/19 13:43:42;;;;;;;9.95;6.80;;;;;;;;;;5097339;28;20488;-86
2023/01/19 13:46:11;;;;;;;8.45;6.60;;;;;;;;;;5096094;28;20472;-85
2023/01/19 13:48:38;;;;;;;12.05;6.88;;;;;;;;;;5097286;28;20389;-86
2023/01/19 13:51:07;;;;;;;7.13;5.72;;;;;;;;;;5096923;28;20055;-86
2023/01/19 13:53:35;;;;;;;11.82;6.72;;;;;;;;;;5096068;28;20050;-86
2023/01/19 13:56:07;;;;;;;12.18;6.45;;;;;;;;;;5096874;28;20040;-87
2023/01/19 13:58:34;;;;;;;10.35;6.30;;;;;;;;;;5096910;28;20507;-85
2023/01/19 14:01:01;;;;;;;10.57;7.10;;;;;;;;;;5096069;28;20080;-87
2023/01/19 14:03:28;;;;;;;8.35;5.80;;;;;;;;;;5096834;28;20058;-86
2023/01/19 14:05:56;;;;;;;9.48;6.20;;;;;;;;;;5096301;28;20101;-85
2023/01/19 14:08:24;;;;;;;7.68;6.32;;;;;;;;;;5096893;28;20043;-87
2023/01/19 14:10:51;;;;;;;8.75;6.35;;;;;;;;;;5095619;28;20055;-86
2023/01/19 14:13:28;;;;;;;11.57;6.78;;;;;;;;;;5095704;28;20071;-86
2023/01/19 14:15:56;;;;;;;7.47;6.35;;;;;;;;;;5095300;28;20113;-86
2023/01/19 14:18:25;;;;;;;7.63;6.53;;;;;;;;;;5095342;28;20066;-86
2023/01/19 14:20:53;;;;;;;8.48;6.22;;;;;;;;;;5095412;28;20058;-86
2023/01/19 14:23:56;;;;;;;7.63;6.15;;;;;;;;;;5094362;28;20562;-86
2023/01/19 14:26:41;;;;;;;7.18;5.80;;;;;;;;;;4997201;28;20049;-85
2023/01/19 14:29:26;;;;;;;8.73;6.45;;;;;;;;;;5090497;28;20044;-86
2023/01/19 14:32:00;;;;;;;11.85;6.95;;;;;;;;;;5095857;28;20080;-86
2023/01/19 14:34:27;;;;;;;;;;;;;;;;;;5095494;28;20456;-86
2023/01/19 14:36:54;;;;;;;10.60;6.22;;;;;;;;;;5094619;28;20007;-85
2023/01/19 14:39:23;;;;;;;7.25;6.45;;;;;;;;;;5094665;28;20052;-87
2023/01/19 14:41:51;;;;;;;6.95;5.85;;;;;;;;;;5094177;28;20098;-85
2023/01/19 14:44:25;;;;;;;6.82;5.85;;;;;;;;;;5095396;28;20051;-86
2023/01/19 14:46:53;;;;;;;7.80;5.78;;;;;;;;;;5095400;28;20047;-87
2023/01/19 14:49:32;;;;;;;8.65;6.32;;;;;;;;;;5093423;28;20052;-86
2023/01/19 14:52:00;;;;;;;7.13;6.03;;;;;;;;;;5094080;28;20051;-86
2023/01/19 14:54:30;;;;;;;6.95;5.53;;;;;;;;;;5093969;28;20382;-84
2023/01/19 14:56:57;;;;;;;9.15;6.30;;;;;;;;;;5093908;28;20055;-86